Time;durP1;ratioP1;P1;durP2;ratioP2;P2;SDS_P1;SDS_P2;PMS_P1;PMS_P2;Temp;Humidity;BMP_temperature;BMP_pressure;BME280_temperature;BME280_humidity;BME280_pressure;Samples;Min_cycle;Max_cycle;Signal;HPM_P1;HPM_P2
2021/10/28 00:13:47;;;;;;;;;;;6.70;97.80;;;;;;6278976;22;20316;-88
2021/10/28 00:19:47;;;;;;;11.45;5.63;;;6.60;97.70;;;;;;6269645;22;20023;-88
2021/10/28 00:22:32;;;;;;;;;;;;;;;;;;;;;
2021/10/28 00:25:40;;;;;;;10.20;4.43;;;6.60;97.70;;;;;;6278937;22;20083;-88
2021/10/28 00:31:08;;;;;;;6.22;4.22;;;6.50;97.70;;;;;;6278107;22;19995;-88
2021/10/28 00:33:37;;;;;;;8.07;4.45;;;6.50;97.60;;;;;;6277341;22;20057;-89
2021/10/28 00:36:09;;;;;;;9.93;4.35;;;6.50;97.80;;;;;;6276769;22;19999;-88
2021/10/28 00:38:37;;;;;;;9.93;5.00;;;6.50;97.90;;;;;;6276579;22;20003;-88
2021/10/28 00:41:06;;;;;;;10.38;4.47;;;6.40;97.90;;;;;;6276100;22;20400;-89
2021/10/28 00:43:42;;;;;;;9.88;5.15;;;6.40;97.90;;;;;;6273516;22;20027;-88
2021/10/28 00:46:41;;;;;;;11.30;5.70;;;6.40;98.30;;;;;;6277353;22;19995;-88
2021/10/28 00:49:16;;;;;;;9.65;4.57;;;6.40;98.10;;;;;;6276707;22;19996;-88
2021/10/28 00:52:06;;;;;;;10.57;4.90;;;6.40;98.10;;;;;;6277119;22;20010;-88
2021/10/28 00:55:01;;;;;;;9.63;5.32;;;6.30;98.50;;;;;;6275440;22;20004;-88
2021/10/28 00:57:41;;;;;;;14.32;6.78;;;6.30;98.40;;;;;;6276528;22;20002;-89
2021/10/28 01:00:20;;;;;;;12.38;5.85;;;6.30;98.60;;;;;;6276581;22;19992;-89
2021/10/28 01:03:08;;;;;;;8.45;5.57;;;6.30;98.60;;;;;;6276799;22;20011;-88
2021/10/28 01:05:59;;;;;;;9.75;4.68;;;6.30;98.60;;;;;;6276074;22;20038;-88
2021/10/28 01:08:54;;;;;;;;;;;;;;;;;;;;;
2021/10/28 01:11:44;;;;;;;;;;;;;;;;;;;;;
2021/10/28 01:14:58;;;;;;;;;;;;;;;;;;;;;
2021/10/28 01:20:49;;;;;;;;;;;;;;;;;;;;;
2021/10/28 01:23:44;;;;;;;10.63;5.18;;;6.20;98.70;;;;;;6278146;22;20088;-88
2021/10/28 01:26:45;;;;;;;;;;;;;;;;;;;;;
2021/10/28 01:32:41;;;;;;;14.02;5.85;;;6.10;99.00;;;;;;6266628;22;20011;-88
2021/10/28 01:35:39;;;;;;;;;;;;;;;;;;;;;
2021/10/28 01:38:31;;;;;;;10.63;5.00;;;6.00;99.10;;;;;;6279153;22;20075;-88
2021/10/28 01:42:11;;;;;;;;;;;;;;;;;;;;;
2021/10/28 01:44:40;;;;;;;;;;;;;;;;;;;;;
2021/10/28 01:47:16;;;;;;;9.23;4.95;;;6.00;99.30;;;;;;6275121;22;20086;-89
2021/10/28 01:49:55;;;;;;;9.23;5.53;;;5.90;99.40;;;;;;6275815;22;20045;-88
2021/10/28 01:52:24;;;;;;;9.77;4.72;;;5.90;99.40;;;;;;6273619;22;20011;-87
2021/10/28 01:55:21;;;;;;;13.50;6.63;;;5.90;99.60;;;;;;6275812;22;20026;-88
2021/10/28 01:58:36;;;;;;;14.35;7.82;;;5.90;99.90;;;;;;6276414;22;19998;-88
2021/10/28 02:01:13;;;;;;;14.10;7.90;;;5.90;99.90;;;;;;6272531;22;20003;-88
2021/10/28 02:04:11;;;;;;;16.92;8.27;;;5.90;99.90;;;;;;6276277;22;20315;-88
2021/10/28 02:07:13;;;;;;;18.90;9.25;;;5.90;99.90;;;;;;6272078;22;20371;-88
2021/10/28 02:10:28;;;;;;;15.30;8.23;;;5.90;99.90;;;;;;6277473;22;20003;-88
2021/10/28 02:13:27;;;;;;;12.85;8.27;;;5.90;99.90;;;;;;6275890;22;20012;-88
2021/10/28 02:23:12;;;;;;;14.55;7.47;;;5.80;99.90;;;;;;6246196;22;20015;-88
2021/10/28 02:25:50;;;;;;;;;;;;;;;;;;;;;
2021/10/28 02:29:10;;;;;;;;;;;;;;;;;;;;;
2021/10/28 02:31:59;;;;;;;;;;;;;;;;;;;;;
2021/10/28 02:34:49;;;;;;;18.75;9.07;;;5.50;99.90;;;;;;6280078;22;20078;-88
2021/10/28 02:37:59;;;;;;;13.68;7.90;;;5.50;99.90;;;;;;6278213;22;20002;-88
2021/10/28 02:40:53;;;;;;;14.88;6.95;;;5.40;99.90;;;;;;6278396;22;20004;-88
2021/10/28 02:43:41;;;;;;;14.88;7.60;;;5.40;99.90;;;;;;6279080;22;20012;-88
2021/10/28 02:46:39;;;;;;;17.35;9.35;;;5.30;99.90;;;;;;6272572;22;20007;-88
2021/10/28 02:49:21;;;;;;;;;;;;;;;;;;;;;
2021/10/28 02:52:10;;;;;;;;;;;;;;;;;;;;;
2021/10/28 02:54:54;;;;;;;24.90;12.07;;;5.30;99.90;;;;;;6279715;22;20340;-88
2021/10/28 02:57:27;;;;;;;25.77;10.05;;;5.30;99.90;;;;;;6279843;22;19998;-89
2021/10/28 03:00:02;;;;;;;23.85;11.93;;;5.20;99.90;;;;;;6278826;22;20000;-89
2021/10/28 03:02:45;;;;;;;21.38;9.80;;;5.20;99.90;;;;;;6277558;22;20038;-88
2021/10/28 03:05:21;;;;;;;;;;;;;;;;;;;;;
2021/10/28 03:07:55;;;;;;;23.88;9.52;;;5.10;99.90;;;;;;6280068;22;20070;-88
2021/10/28 03:13:18;;;;;;;19.63;9.85;;;5.10;99.90;;;;;;6262661;22;20010;-87
2021/10/28 03:15:54;;;;;;;18.23;9.70;;;5.10;99.90;;;;;;6279889;22;20020;-88
2021/10/28 03:27:33;;;;;;;22.10;9.63;;;4.90;99.90;;;;;;6247124;22;20019;-88
2021/10/28 03:30:08;;;;;;;26.90;9.43;;;4.90;99.90;;;;;;6271833;22;20311;-88
2021/10/28 03:32:38;;;;;;;30.65;15.77;;;4.90;99.90;;;;;;6276938;22;20000;-88
2021/10/28 03:35:27;;;;;;;25.67;13.38;;;4.90;99.90;;;;;;6277014;22;20001;-88
2021/10/28 03:38:28;;;;;;;26.90;13.30;;;4.90;99.90;;;;;;6277126;22;20403;-87
2021/10/28 03:41:57;;;;;;;27.45;14.05;;;4.80;99.90;;;;;;6277220;22;20043;-87
2021/10/28 03:45:00;;;;;;;34.30;14.82;;;4.80;99.90;;;;;;6272777;22;20018;-88
2021/10/28 03:47:43;;;;;;;22.20;10.68;;;4.80;99.90;;;;;;6277445;22;20080;-87
2021/10/28 03:50:46;;;;;;;26.83;11.68;;;4.80;99.90;;;;;;6278234;22;20058;-88
2021/10/28 04:03:24;;;;;;;18.98;8.45;;;4.80;99.90;;;;;;6288137;22;20008;-89
2021/10/28 04:29:13;;;;;;;11.40;6.20;;;4.70;99.90;;;;;;6278189;22;20061;-89
2021/10/28 04:32:16;;;;;;;;;;;;;;;;;;;;;
2021/10/28 04:34:59;;;;;;;18.55;8.77;;;4.80;99.90;;;;;;6280544;22;20083;-88
2021/10/28 04:37:46;;;;;;;;;;;;;;;;;;;;;
2021/10/28 04:43:42;;;;;;;10.43;5.88;;;4.90;99.90;;;;;;6277087;22;20102;-89
2021/10/28 04:46:24;;;;;;;15.85;7.53;;;4.90;99.90;;;;;;6276224;22;19999;-89
2021/10/28 04:49:30;;;;;;;14.25;7.88;;;4.90;99.90;;;;;;6276558;22;19996;-89
2021/10/28 04:52:23;;;;;;;;;;;;;;;;;;;;;
2021/10/28 05:01:42;;;;;;;15.75;8.27;;;5.00;99.90;;;;;;6250164;22;20450;-88
2021/10/28 05:05:01;;;;;;;;;;;;;;;;;;;;;
2021/10/28 05:07:42;;;;;;;;;;;;;;;;;;;;;
2021/10/28 05:10:33;;;;;;;16.52;7.28;;;5.10;99.90;;;;;;6277717;22;20066;-88
2021/10/28 05:23:36;;;;;;;15.57;7.97;;;5.30;99.90;;;;;;6184219;23;20023;-88
2021/10/28 05:26:37;;;;;;;;;;;;;;;;;;;;;
2021/10/28 05:29:11;;;;;;;16.48;7.07;;;5.40;99.90;;;;;;6267269;22;20491;-88
2021/10/28 05:34:52;;;;;;;15.77;8.27;;;5.60;99.90;;;;;;6277485;22;20299;-88
2021/10/28 05:37:28;;;;;;;14.35;9.07;;;5.70;99.90;;;;;;6277064;22;20000;-88
2021/10/28 05:40:20;;;;;;;16.75;9.25;;;5.80;99.90;;;;;;6275793;22;20051;-90
2021/10/28 05:43:11;;;;;;;19.58;11.18;;;5.80;99.90;;;;;;6276773;22;20039;-88
2021/10/28 05:45:49;;;;;;;16.35;10.10;;;5.90;99.90;;;;;;6276383;22;19996;-89
2021/10/28 05:48:23;;;;;;;20.60;10.70;;;5.90;99.90;;;;;;6276282;22;19999;-89
2021/10/28 05:50:59;;;;;;;;;;;;;;;;;;;;;
2021/10/28 05:56:11;;;;;;;18.63;9.30;;;6.10;99.90;;;;;;6279490;22;20050;-88
2021/10/28 05:58:40;;;;;;;29.30;8.90;;;6.10;99.90;;;;;;6277641;22;19996;-89
2021/10/28 06:01:31;;;;;;;17.48;11.25;;;6.20;99.90;;;;;;6277590;22;19991;-88
2021/10/28 06:04:21;;;;;;;22.27;11.95;;;6.20;99.90;;;;;;6278289;22;20008;-90
2021/10/28 06:06:52;;;;;;;18.05;9.00;;;6.30;99.90;;;;;;6277040;22;20064;-89
2021/10/28 06:09:31;;;;;;;;;;;;;;;;;;;;;
2021/10/28 06:12:00;;;;;;;16.80;8.55;;;6.50;99.90;;;;;;6279766;22;20070;-89
2021/10/28 06:14:32;;;;;;;19.65;8.85;;;6.50;99.90;;;;;;6278049;22;20010;-89
2021/10/28 06:17:13;;;;;;;20.48;9.95;;;6.60;99.90;;;;;;6278054;22;20430;-88
2021/10/28 06:19:44;;;;;;;19.77;10.93;;;6.70;99.90;;;;;;6278908;22;20406;-88
2021/10/28 06:22:35;;;;;;;21.10;11.65;;;6.90;99.90;;;;;;6278868;22;20122;-89
2021/10/28 06:25:46;;;;;;;15.77;8.63;;;7.10;99.90;;;;;;6283051;22;20055;-90
2021/10/28 06:31:52;;;;;;;15.20;9.10;;;7.60;99.90;;;;;;6287928;22;20003;-88
2021/10/28 06:37:25;;;;;;;21.42;11.63;;;8.00;99.90;;;;;;6275347;22;20056;-88
2021/10/28 06:40:07;;;;;;;14.15;9.60;;;8.20;99.90;;;;;;6278160;22;20391;-88
2021/10/28 06:42:41;;;;;;;18.35;9.35;;;8.50;99.70;;;;;;6277307;22;20019;-88
2021/10/28 06:45:10;;;;;;;15.10;10.02;;;8.70;99.20;;;;;;6278310;22;19996;-88
2021/10/28 06:47:54;;;;;;;19.92;10.93;;;8.80;98.80;;;;;;6276916;22;20003;-88
2021/10/28 06:50:27;;;;;;;;;;;8.90;98.20;;;;;;6278398;22;20407;-88
2021/10/28 07:02:46;;;;;;;18.15;9.85;;;9.00;98.20;;;;;;6245106;23;20015;-88
2021/10/28 07:05:26;;;;;;;18.23;10.27;;;9.10;98.20;;;;;;6255367;22;20090;-87
2021/10/28 09:27:34;;;;;;;19.20;11.32;;;13.20;87.90;;;;;;6067831;23;20022;-93
2021/10/28 09:30:43;;;;;;;;;;;;;;;;;;;;;
2021/10/28 10:03:47;;;;;;;;;;;;;;;;;;;;;
